Badger Spring Valley, Nevada Weather observations

Data are for 10 minute period ending at time listed.
 Day   Time   Solar   Ave.   Ave.  Ave.  Vector  Max.   Baro.   Total    
  of    of     Rad.   Air    Rel.  Wind   Wind   Wind  Press.  Precip.   
Year   Day            Temp.  Hum.  Speed  Dir.   Gust                    
2014   (PST)  Kw/m2    F      %     mph   deg.    mph    mb.     in.     
-------------------------------------------------------------------------
 327    0:20   0.00   39.3    51   10.1   327    21.5   830.1    0.00 
 327    0:30   0.00   39.0    50   10.4   327    17.0   830.1    0.00 
 327    0:40   0.00   38.9    49    9.1   321    15.7   830.2    0.00 
 327    0:50   0.00   38.8    48   10.5   317    14.9   830.3    0.00 
 327    1:00   0.00   38.9    47   11.5   320    18.7   830.5    0.00 
 327    1:10   0.00   38.6    46    9.8   317    16.0   830.8    0.00 
 327    1:20   0.00   38.5    45   10.6   314    15.4   830.9    0.00 
 327    1:30   0.00   38.2    45    9.2   320    13.9   831.1    0.00 
 327    1:40   0.00   37.4    45    6.9   342    11.1   831.2    0.00 
 327    1:50   0.00   37.2    43    9.8   352    15.7   831.3    0.00 
 327    2:00   0.00   36.9    43    8.2   351    12.6   831.4    0.00 
 327    2:10   0.00   36.3    45   10.2   346    15.7   831.6    0.00 
 327    2:20   0.00   36.0    48   11.0   342    20.4   831.9    0.00 
 327    2:30   0.00   35.7    49   10.0   337    18.6   831.8    0.00 
 327    2:40   0.00   35.5    50   10.0   331    18.2   831.8    0.00 
 327    2:50   0.00   35.4    50   10.9   317    16.0   831.9    0.00 
 327    3:00   0.00   35.2    51   10.3   330    18.2   831.9    0.00 
 327    3:10   0.00   35.2    51   12.8   315    18.1   831.9    0.00 
 327    3:20   0.00   35.5    50   12.1   332    20.0   832.2    0.00 
 327    3:30   0.00   35.0    53   12.0   341    20.5   832.2    0.00 
 327    3:40   0.00   34.6    54   10.1   325    17.2   832.2    0.00 
 327    3:50   0.00   34.9    53   12.6   316    20.7   832.2    0.00 
 327    4:00   0.00   35.1    52   11.5   324    20.2   832.2    0.00 
 327    4:10   0.00   35.0    50   10.1   329    16.1   832.2    0.00 
 327    4:20   0.00   34.1    52    9.5   359    13.9   832.4    0.00 
 327    4:30   0.00   33.8    55    9.1     3    14.3   832.6    0.00 
 327    4:40   0.00   33.8    55    8.1   348    13.7   832.9    0.00 
 327    4:50   0.00   33.3    56    8.1   324    12.8   833.0    0.00 
 327    5:00   0.00   33.4    55    8.0   323    13.1   833.2    0.00 
 327    5:10   0.00   33.5    55    8.7   323    14.1   833.3    0.00 
 327    5:20   0.00   33.2    56    8.1   320    13.0   833.5    0.00 
 327    5:30   0.00   33.0    56    7.2   329    13.7   833.7    0.00 
 327    5:40   0.00   33.1    55    7.1   326    11.2   833.7    0.00 
 327    5:50   0.00   32.7    55    6.3   324    12.1   833.8    0.00 
 327    6:00   0.00   33.0    54    9.6   339    18.8   834.1    0.00 
 327    6:10   0.00   32.9    54    8.5   334    19.0   834.2    0.00 
 327    6:20   0.00   33.0    54    8.4   332    17.8   834.4    0.00 
 327    6:30   0.00   32.7    54    7.8   338    16.0   834.6    0.00 
 327    6:40   0.01   32.6    54    9.2   334    17.3   834.7    0.00 
 327    6:50   0.04   33.1    53   10.2   324    18.5   834.7    0.00 
 327    7:00   0.07   33.7    51    9.7   330    18.0   834.8    0.00 
 327    7:10   0.10   34.2    49   12.7   330    20.2   834.9    0.00 
 327    7:20   0.12   34.6    48   12.3   352    19.5   835.2    0.00 
 327    7:30   0.15   34.7    48    9.3   358    17.4   835.4    0.00 
 327    7:40   0.18   34.8    48   10.9   349    19.0   835.6    0.00 
 327    7:50   0.21   35.1    48   12.2   345    19.6   835.7    0.00 
 327    8:00   0.24   35.3    47   14.6   336    26.5   835.7    0.00 
 327    8:10   0.27   35.5    46   17.0   345    26.5   835.7    0.00 
 327    8:20   0.30   35.9    45   13.2   341    22.6   835.6    0.00 
 327    8:30   0.33   36.1    44   16.0   350    26.0   835.6    0.00 
 327    8:40   0.36   35.9    45   12.5     1    22.2   835.7    0.00 
 327    8:50   0.39   36.1    44    9.7    12    22.4   835.7    0.00 
 327    9:00   0.41   36.4    44    9.3    12    23.2   835.9    0.00 
 327    9:10   0.44   36.9    42    9.1    16    22.3   836.0    0.00 
 327    9:20   0.47   36.7    42   10.9     3    20.0   836.0    0.00 
 327    9:30   0.49   36.8    41   14.0   359    22.6   836.0    0.00 
 327    9:40   0.51   37.6    39   12.5   357    21.9   835.9    0.00 
 327    9:50   0.53   38.3    38   15.1   355    21.7   836.1    0.00 
 327   10:00   0.56   38.8    37   13.6   354    19.6   836.3    0.00 
 327   10:10   0.54   39.1    35   13.1   352    20.2   836.3    0.00 
 327   10:20   0.56   39.3    33   15.8   353    28.6   836.4    0.00 
 327   10:30   0.56   39.5    31   15.9   356    25.3   836.3    0.00 
 327   10:40   0.60   40.0    30   15.0   355    26.0   836.2    0.00 
 327   10:50   0.61   40.3    28   17.8   354    26.0   836.0    0.00 
 327   11:00   0.62   41.1    28   14.2   355    23.2   836.0    0.00 
 327   11:10   0.63   41.5    27   15.2   352    25.2   836.0    0.00 
 327   11:20   0.63   41.6    27   15.5   349    23.5   835.9    0.00 
 327   11:30   0.64   41.8    26   14.1   358    21.4   836.0    0.00 
 327   11:40   0.64   41.7    25   14.2   359    22.5   835.9    0.00 
 327   11:50   0.63   41.9    24   13.9     3    20.7   835.9    0.00 
 327   12:00   0.63   42.7    24   13.1   349    21.5   835.7    0.00 
 327   12:10   0.62   43.2    23   14.0   343    21.7   835.7    0.00 
 327   12:20   0.61   43.7    22   12.1   342    20.0   835.6    0.00 
 327   12:30   0.57   44.1    21   11.7   344    19.1   835.4    0.00 
 327   12:40   0.59   44.0    20   12.1   350    19.3   835.4    0.00 
 327   12:50   0.58   44.3    18   11.6     0    19.3   835.3    0.00 
 327   13:00   0.56   44.4    20   12.7   358    18.8   835.1    0.00 
 327   13:10   0.55   44.9    20   13.4   355    20.2   835.0    0.00 
 327   13:20   0.53   44.6    18   14.6   351    24.2   834.9    0.00 
 327   13:30   0.42   44.0    18   15.4   356    22.9   834.8    0.00 
 327   13:40   0.49   44.5    17   14.4   346    23.8   834.8    0.00 
 327   13:50   0.46   44.5    17   14.8   347    21.3   834.8    0.00 
 327   14:00   0.44   44.8    16   11.8   349    19.1   834.8    0.00 
 327   14:10   0.41   44.8    16   14.4   347    25.0   834.8    0.00 
 327   14:20   0.41   44.9    17   11.9   344    24.5   834.7    0.00 
 327   14:30   0.38   44.9    17   11.8   345    18.3   834.9    0.00 
 327   14:40   0.35   45.0    17   10.7   334    18.9   835.1    0.00 
 327   14:50   0.36   45.1    18   11.2   333    16.6   835.0    0.00 
 327   15:00   0.24   44.5    18    9.2   349    14.8   835.0    0.00 
 327   15:10   0.24   44.1    19    9.8     3    14.8   835.0    0.00 
 327   15:20   0.20   44.0    19    9.1     2    13.9   834.9    0.00 
 327   15:30   0.18   43.8    18    9.2   354    13.6   835.0    0.00 
 327   15:40   0.13   43.7    18    8.2   333    13.1   835.1    0.00 
 327   15:50   0.09   43.1    19    7.6   332    11.1   835.1    0.00 
 327   16:00   0.04   42.6    19    7.2   335    10.7   835.0    0.00 
 327   16:10   0.01   41.9    20    7.2   321    10.7   834.9    0.00 
 327   16:20   0.01   41.4    20    7.9   316    11.2   834.8    0.00 
 327   16:30   0.01   40.8    21    6.2   328     9.6   834.8    0.00 
 327   16:40   0.00   40.6    21    5.9   332     8.3   834.8    0.00 
 327   16:50   0.00   39.8    22    5.7   314     7.8   834.9    0.00 
 327   17:00   0.00   38.4    23    7.4   288     9.6   835.0    0.00 
 327   17:10   0.00   36.8    24    8.4   294     9.6   835.0    0.00 
 327   17:20   0.00   37.1    24    9.1   288    10.2   835.0    0.00 
 327   17:30   0.00   36.1    26    8.7   288    10.5   835.1    0.00 
 327   17:40   0.00   37.0    26    9.4   288    11.7   835.1    0.00 
 327   17:50   0.00   37.6    26    9.1   286    10.7   835.1    0.00 
 327   18:00   0.00   37.2    26    9.6   287    11.6   835.1    0.00 
 327   18:10   0.00   37.0    26    9.7   284    11.3   835.1    0.00 
 327   18:20   0.00   36.6    26    9.0   292    10.3   835.2    0.00 
 327   18:30   0.00   36.0    27    7.3   301     9.2   835.2    0.00 
 327   18:40   0.00   35.8    27    6.6   307     8.7   835.2    0.00 
 327   18:50   0.00   34.6    28    6.1   339     8.2   835.3    0.00 
 327   19:00   0.00   36.0    28    7.8   334     9.3   835.3    0.00 
 327   19:10   0.00   37.9    28    8.0   334    10.4   835.3    0.00 
 327   19:20   0.00   38.2    28    7.8   338    10.1   835.5    0.00 
 327   19:30   0.00   37.4    28    6.8   339     8.1   835.6    0.00 
 327   19:40   0.00   36.5    27    6.1   347     8.0   835.6    0.00 
 327   19:50   0.00   35.3    27    5.6   350     6.4   835.6    0.00 
 327   20:00   0.00   34.0    27    6.2   341     7.0   835.6    0.00 
 327   20:10   0.00   35.1    26    5.2   323     8.3   835.6    0.00 
 327   20:20   0.00   36.1    25    6.3   314     8.2   835.6    0.00 
 327   20:30   0.00   34.0    27    6.3   331     8.8   835.8    0.00 
 327   20:40   0.00   37.3    27    7.5   332    13.4   835.7    0.00 
 327   20:50   0.00   38.6    27    6.9   325    11.2   835.7    0.00 
 327   21:00   0.00   38.0    28    6.0   325     9.2   835.8    0.00 
 327   21:10   0.00   38.0    29    6.5   324     9.1   835.8    0.00 
 327   21:20   0.00   37.9    28    7.0   324    12.2   835.9    0.00 
 327   21:30   0.00   38.2    27    8.4   335    13.2   836.0    0.00 
 327   21:40   0.00   37.9    28    8.4   335    11.1   836.1    0.00 
 327   21:50   0.00   37.4    28    9.4   345    11.8   836.0    0.00 
 327   22:00   0.00   37.5    28    9.8   343    12.9   836.1    0.00 
 327   22:10   0.00   37.5    28   10.4   340    13.4   836.1    0.00 
 327   22:20   0.00   37.3    28   10.1   342    13.2   836.2    0.00 
 327   22:30   0.00   37.2    28   10.1   343    13.5   836.1    0.00 
 327   22:40   0.00   37.2    28    9.8   345    12.9   836.2    0.00 
 327   22:50   0.00   37.0    28   11.0   342    14.2   836.3    0.00 
 327   23:00   0.00   37.2    29   10.0   339    13.4   836.4    0.00 
 327   23:10   0.00   37.3    28   10.6   346    14.5   836.5    0.00 
 327   23:20   0.00   37.2    28    9.9   346    14.5   836.5    0.00 
 327   23:30   0.00   36.6    29    9.6   349    12.6   836.5    0.00 
 327   23:40   0.00   36.1    30    7.1   346    12.0   836.3    0.00 
 327   23:50   0.00   36.1    31    7.0   338     9.9   836.3    0.00 
 328    0:00   0.00   36.7    31    7.1   338    10.4   836.3    0.00 
 328    0:10   0.00   36.6    31    5.6   336     8.6   836.3    0.00 

Return to Badger Spring Valley graphs page.


Western Regional Climate Center,wrcc@dri.edu